Kezdőlap
METAR-TAF:

METAR-TAF

Repülőterek :

Craiova, Románia

földrajzi szélesség: 44-14N, földrajzi hosszúság: 023-52E, magasság: 192 m

Jelenlegi meteorológiai megfigyelések

A jelentés 18 perccel ezelõtt készült, 18:30 UTC
Délnyugati szél 3 kt
Hőmérséklet 14°C
Páratartalom 77%
Légköri nyomás 1019 hPa
Látótávolság 10 km, vagy több

METAR: LRCV 201830Z AUTO 22003KT 9999 SCT100/// 14/10 Q1019

Idő: 21:48 (18:48 UTC)

Előrejelzés

A jelentés 1 órával és 48 perccel ezelõtt készült, 17:00 UTC
Az előrejelzés 20-én 18 óra UTC és 21-én 03 óra UTC között érvényes
Különbözõ irányokból fújó szél 4 kt
Látótávolság 10 km, vagy több
felhőtlen 1500 m magasságban, és nincs gomolyfelhõ

TAF: LRCV 201700Z 2018/2103 VRB04KT CAVOK

Meteorológiai megfigyelések és előrejelzések több, mint 4000 repülőtéren (METAR és TAF jelentéseket).

A térképen piros és sárga pontok jelzik az elérhető meteorológiai állomásokat.

Mozgassa az egeret a pont fölött, hogy megjelenjen az állomás neve.

Azután kattintson az időjárási megfigyelések és előrejelzések megtekintéséhez.

A térkép megváltoztatása: kattintson a fekete keresztel jelölt zöld gombra ráközelítéshez, a vonallal jelölt zöld gombra távolításhoz, vagy a zöld nyilakra a szomszédos térképek eléréséhez.


METAR-TAF: